Time;durP1;ratioP1;P1;durP2;ratioP2;P2;SDS_P1;SDS_P2;PMS_P1;PMS_P2;Temp;Humidity;BMP_temperature;BMP_pressure;BME280_temperature;BME280_humidity;BME280_pressure;Samples;Min_cycle;Max_cycle;Signal;HPM_P1;HPM_P2
2022/11/22 00:01:24;;;;;;;;;;;;;;;8.57;80.21;98212.19;7397803;19;20608;-87
2022/11/22 00:07:16;;;;;;;;;;;;;;;8.54;80.90;98201.28;7398177;19;19922;-88
2022/11/22 00:09:46;;;;;;;;;;;;;;;8.45;80.04;98199.88;7398703;19;19942;-87
2022/11/22 00:12:12;;;;;;;;;;;;;;;8.48;81.73;98196.88;7391203;19;19919;-87
2022/11/22 00:14:39;;;;;;;;;;;;;;;8.53;81.40;98199.69;7388277;19;19939;-90
2022/11/22 00:17:14;;;;;;;;;;;;;;;8.54;81.47;98201.28;7390496;19;19925;-88
2022/11/22 00:19:42;;;;;;;;;;;;;;;8.56;81.14;98202.69;7390161;19;19927;-89
2022/11/22 00:22:08;;;;;;;;;;;;;;;8.54;81.42;98207.31;7396556;19;19939;-88
2022/11/22 00:24:38;;;;;;;;;;;;;;;8.54;81.13;98201.28;7393133;19;20258;-89
2022/11/22 00:27:05;;;;;;;;;;;;;;;8.54;81.35;98202.09;7396195;19;19922;-87
2022/11/22 00:29:41;;;;;;;;;;;;;;;8.60;82.06;98200.47;7396100;19;19972;-87
2022/11/22 00:35:29;;;;;;;;;;;;;;;8.59;80.85;98190.97;7396067;19;19922;-89
2022/11/22 00:37:56;;;;;;;;;;;;;;;8.65;82.04;98205.09;7390518;19;19936;-88
2022/11/22 00:40:24;;;;;;;;;;;;;;;8.65;81.11;98182.31;7390805;19;20331;-89
2022/11/22 00:42:54;;;;;;;;;;;;;;;8.66;80.80;98186.53;7392405;19;19938;-89
2022/11/22 00:45:20;;;;;;;;;;;;;;;8.58;80.43;98192.78;7392280;19;19925;-89
2022/11/22 00:47:47;;;;;;;;;;;;;;;8.57;80.99;98185.97;7394755;19;19919;-90
2022/11/22 00:50:14;;;;;;;;;;;;;;;8.58;81.39;98181.53;7392778;19;19918;-90
2022/11/22 00:52:41;;;;;;;;;;;;;;;8.59;81.25;98180.50;7392869;19;19933;-90
2022/11/22 00:55:08;;;;;;;;;;;;;;;8.58;81.24;98178.91;7393808;19;19986;-89
2022/11/22 00:57:35;;;;;;;;;;;;;;;8.62;80.71;98184.53;7391997;19;19919;-87
2022/11/22 01:00:04;;;;;;;;;;;;;;;8.65;81.37;98178.88;7394477;19;19946;-88
2022/11/22 01:02:30;;;;;;;;;;;;;;;8.61;80.80;98181.13;7399932;19;20489;-88
2022/11/22 01:04:57;;;;;;;;;;;;;;;8.62;80.61;98177.50;7393865;19;19936;-89
2022/11/22 01:07:24;;;;;;;;;;;;;;;8.62;81.30;98180.09;7392568;19;19970;-89
2022/11/22 01:09:51;;;;;;;;;;;;;;;8.66;81.11;98177.88;7393189;19;19923;-89
2022/11/22 01:15:36;;;;;;;;;;;;;;;8.65;81.96;98181.50;7392619;19;19923;-89
2022/11/22 01:18:03;;;;;;;;;;;;;;;8.62;81.51;98179.31;7392401;19;19939;-88
2022/11/22 01:20:30;;;;;;;;;;;;;;;8.66;82.01;98181.31;7390354;19;20001;-88
2022/11/22 01:22:57;;;;;;;;;;;;;;;8.70;81.31;98186.94;7389718;19;19938;-89
2022/11/22 01:25:24;;;;;;;;;;;;;;;8.73;81.53;98189.16;7391465;19;19918;-88
2022/11/22 01:27:51;;;;;;;;;;;;;;;8.69;80.41;98185.31;7400343;19;19947;-89
2022/11/22 01:30:18;;;;;;;;;;;;;;;8.67;80.40;98187.34;7400111;19;19919;-88
2022/11/22 01:32:45;;;;;;;;;;;;;;;8.66;80.23;98183.91;7395626;19;19939;-89
2022/11/22 01:35:12;;;;;;;;;;;;;;;8.68;81.25;98184.53;7396916;19;19919;-88
2022/11/22 01:37:39;;;;;;;;;;;;;;;8.72;81.42;98183.09;7395203;19;19982;-89
2022/11/22 01:40:06;;;;;;;;;;;;;;;8.76;81.31;98184.28;7395333;19;19910;-87
2022/11/22 01:42:42;;;;;;;;;;;;;;;8.77;80.58;98177.25;7396891;19;20503;-88
2022/11/22 01:45:27;;;;;;;;;;;;;;;8.77;80.89;98185.09;7397083;19;19919;-88
2022/11/22 01:48:05;;;;;;;;;;;;;;;8.79;81.35;98188.31;7396388;19;19930;-88
2022/11/22 01:50:34;;;;;;;;;;;;;;;8.80;81.03;98182.06;7395205;19;19982;-88
2022/11/22 01:53:08;;;;;;;;;;;;;;;8.85;82.07;98188.28;7396668;19;19943;-88
2022/11/22 01:55:36;;;;;;;;;;;;;;;8.87;81.59;98181.03;7396997;19;19936;-88
2022/11/22 01:58:05;;;;;;;;;;;;;;;8.82;79.95;98172.19;7394505;19;19925;-88
2022/11/22 02:00:33;;;;;;;;;;;;;;;8.77;80.07;98172.00;7390176;19;19919;-88
2022/11/22 02:03:01;;;;;;;;;;;;;;;8.82;81.46;98178.22;7394902;19;19922;-87
2022/11/22 02:05:30;;;;;;;;;;;;;;;8.86;81.20;98176.78;7395373;19;19925;-88
2022/11/22 02:08:21;;;;;;;;;;;;;;;8.86;80.66;98179.41;7397681;19;19919;-87
2022/11/22 02:10:51;;;;;;;;;;;;;;;8.85;79.89;98179.63;7396166;19;21279;-89
2022/11/22 02:13:19;;;;;;;;;;;;;;;8.81;80.39;98174.00;7396274;19;19915;-88
2022/11/22 02:15:46;;;;;;;;;;;;;;;8.74;79.58;98177.63;7392995;19;19918;-88
2022/11/22 02:18:13;;;;;;;;;;;;;;;8.70;80.48;98174.63;7394807;19;20033;-88
2022/11/22 02:20:41;;;;;;;;;;;;;;;8.72;82.02;98172.63;7394241;19;20002;-88
2022/11/22 02:23:23;;;;;;;;;;;;;;;8.73;81.27;98183.91;7390505;19;20585;-88
2022/11/22 02:29:08;;;;;;;;;;;;;;;8.73;80.48;98189.16;7393950;19;19930;-90
2022/11/22 02:31:42;;;;;;;;;;;;;;;8.72;81.00;98188.34;7397056;19;19926;-88
2022/11/22 02:34:12;;;;;;;;;;;;;;;8.76;81.34;98186.09;7396143;19;19923;-88
2022/11/22 02:36:44;;;;;;;;;;;;;;;8.78;80.90;98176.22;7399917;19;19942;-89
2022/11/22 02:39:13;;;;;;;;;;;;;;;8.80;80.35;98185.47;7401585;19;19982;-87
2022/11/22 02:51:36;;;;;;;;;;;;;;;8.93;79.48;98180.22;7411637;19;19929;-88
2022/11/22 02:54:03;;;;;;;;;;;;;;;8.93;79.21;98180.22;7407949;19;19938;-88
2022/11/22 02:56:30;;;;;;;;;;;;;;;8.93;79.38;98169.72;7403373;19;19950;-88
2022/11/22 02:59:00;;;;;;;;;;;;;;;8.94;79.19;98170.50;7403160;19;20238;-87
2022/11/22 03:01:27;;;;;;;;;;;;;;;8.89;78.78;98181.63;7399001;19;19917;-88
2022/11/22 03:07:19;;;;;;;;;;;;;;;8.89;80.58;98180.81;7405145;19;19911;-88
2022/11/22 03:09:46;;;;;;;;;;;;;;;8.87;79.57;98170.53;7402330;19;20334;-89
2022/11/22 03:12:15;;;;;;;;;;;;;;;8.85;79.42;98175.19;7399530;19;19922;-87
2022/11/22 03:14:42;;;;;;;;;;;;;;;8.85;80.33;98169.94;7398065;19;19919;-88
2022/11/22 03:17:13;;;;;;;;;;;;;;;8.83;80.33;98165.94;7404606;19;19998;-85
2022/11/22 03:19:40;;;;;;;;;;;;;;;8.84;80.13;98162.28;7400425;19;19918;-87
2022/11/22 03:22:07;;;;;;;;;;;;;;;8.86;80.36;98153.19;7399835;19;20148;-86
2022/11/22 03:24:36;;;;;;;;;;;;;;;8.86;79.88;98157.63;7397009;19;19936;-88
2022/11/22 03:33:47;;;;;;;;;;;;;;;8.79;80.83;98170.75;7408394;19;19922;-89
2022/11/22 03:36:15;;;;;;;;;;;;;;;8.78;80.31;98177.03;7396040;19;20923;-88
2022/11/22 03:38:42;;;;;;;;;;;;;;;8.78;80.98;98181.47;7391539;19;19986;-89
2022/11/22 03:41:09;;;;;;;;;;;;;;;8.79;81.82;98178.63;7390847;19;19918;-87
2022/11/22 03:43:39;;;;;;;;;;;;;;;8.78;81.12;98171.78;7392636;19;19918;-87
2022/11/22 03:46:06;;;;;;;;;;;;;;;8.78;81.44;98179.66;7391481;19;20337;-87
2022/11/22 03:48:32;;;;;;;;;;;;;;;8.75;80.56;98176.63;7392543;19;19930;-89
2022/11/22 03:51:03;;;;;;;;;;;;;;;8.75;81.09;98171.38;7391695;19;19946;-88
2022/11/22 03:53:31;;;;;;;;;;;;;;;8.71;80.55;98175.44;7390548;19;19934;-87
2022/11/22 03:55:58;;;;;;;;;;;;;;;8.69;81.11;98167.78;7393583;19;20220;-88
2022/11/22 03:58:25;;;;;;;;;;;;;;;8.72;82.10;98169.19;7394818;19;19955;-88
2022/11/22 04:00:52;;;;;;;;;;;;;;;8.75;82.09;98171.38;7393550;19;19915;-88
2022/11/22 04:03:22;;;;;;;;;;;;;;;8.75;81.84;98174.81;7394471;19;19930;-89
2022/11/22 04:05:49;;;;;;;;;;;;;;;8.69;80.99;98167.78;7393965;19;20419;-89
2022/11/22 04:08:16;;;;;;;;;;;;;;;8.69;81.34;98172.22;7391699;19;19932;-88
2022/11/22 04:10:43;;;;;;;;;;;;;;;8.72;82.45;98169.19;7392154;19;20363;-87
2022/11/22 04:13:10;;;;;;;;;;;;;;;8.73;81.69;98166.38;7390669;19;20196;-89
2022/11/22 04:15:37;;;;;;;;;;;;;;;8.67;81.21;98163.75;7391758;19;19922;-89
2022/11/22 04:18:04;;;;;;;;;;;;;;;8.69;82.22;98161.72;7390220;19;19933;-88
2022/11/22 04:23:17;;;;;;;;;;;;;;;8.77;82.59;98164.94;7391175;19;19915;-88
2022/11/22 04:25:48;;;;;;;;;;;;;;;8.76;82.03;98167.75;7389882;19;19922;-89
2022/11/22 04:34:19;;;;;;;;;;;;;;;8.74;81.52;98167.16;7391485;19;19915;-87
2022/11/22 04:36:46;;;;;;;;;;;;;;;8.72;81.35;98167.38;7390852;19;19938;-88
2022/11/22 04:39:18;;;;;;;;;;;;;;;8.75;81.49;98181.88;7389287;19;20697;-88
2022/11/22 04:45:04;;;;;;;;;;;;;;;8.75;82.34;98176.63;7388518;19;19915;-88
2022/11/22 04:53:02;;;;;;;;;;;;;;;8.74;81.78;98188.13;7392325;19;19925;-88
2022/11/22 04:55:29;;;;;;;;;;;;;;;8.75;81.98;98187.13;7391351;19;19947;-88
2022/11/22 04:57:56;;;;;;;;;;;;;;;8.77;81.94;98185.09;7387282;19;20313;-89
2022/11/22 05:00:26;;;;;;;;;;;;;;;8.74;81.67;98186.31;7390614;19;19939;-89
2022/11/22 05:02:53;;;;;;;;;;;;;;;8.74;81.75;98190.75;7397813;19;19930;-88
2022/11/22 05:05:20;;;;;;;;;;;;;;;8.71;81.55;98188.53;7402277;19;19934;-87
2022/11/22 05:07:47;;;;;;;;;;;;;;;8.67;81.53;98190.78;7400241;19;19951;-88
2022/11/22 05:10:14;;;;;;;;;;;;;;;8.64;81.99;98190.38;7395996;19;19925;-88
2022/11/22 05:12:48;;;;;;;;;;;;;;;8.63;82.69;98191.41;7397753;19;19918;-88
2022/11/22 05:15:18;;;;;;;;;;;;;;;8.64;82.46;98190.38;7394817;19;19919;-89
2022/11/22 05:17:44;;;;;;;;;;;;;;;8.67;82.82;98197.84;7396927;19;19950;-87
2022/11/22 05:20:11;;;;;;;;;;;;;;;8.70;83.14;98205.28;7396666;19;19931;-87
2022/11/22 05:25:23;;;;;;;;;;;;;;;8.68;82.52;98199.44;7399629;19;19919;-86
2022/11/22 05:31:23;;;;;;;;;;;;;;;8.73;83.15;98199.63;7400549;19;19995;-88
2022/11/22 05:33:51;;;;;;;;;;;;;;;8.71;82.84;98202.47;7400857;19;19943;-89
2022/11/22 05:36:18;;;;;;;;;;;;;;;8.72;83.67;98198.03;7399764;19;19978;-88
2022/11/22 05:38:45;;;;;;;;;;;;;;;8.71;82.58;98193.78;7395185;19;19914;-88
2022/11/22 05:41:12;;;;;;;;;;;;;;;8.71;82.60;98207.69;7397210;19;19954;-88
2022/11/22 05:43:40;;;;;;;;;;;;;;;8.73;83.59;98194.41;7398153;19;19914;-89
2022/11/22 05:46:08;;;;;;;;;;;;;;;8.70;82.79;98200.84;7397949;19;20272;-88
2022/11/22 05:48:36;;;;;;;;;;;;;;;8.71;82.73;98197.22;7398020;19;19930;-88
2022/11/22 05:51:04;;;;;;;;;;;;;;;8.74;83.06;98202.03;7395880;19;19915;-88
2022/11/22 05:53:31;;;;;;;;;;;;;;;8.76;83.02;98202.66;7395648;19;19922;-88
2022/11/22 05:56:02;;;;;;;;;;;;;;;8.80;82.73;98203.03;7396519;19;19951;-87
2022/11/22 05:58:29;;;;;;;;;;;;;;;8.82;82.27;98211.50;7398667;19;19926;-87
2022/11/22 06:01:00;;;;;;;;;;;;;;;8.85;81.98;98209.25;7397523;19;19923;-87
2022/11/22 06:03:27;;;;;;;;;;;;;;;8.79;81.41;98204.84;7401286;19;19919;-88
2022/11/22 06:05:54;;;;;;;;;;;;;;;8.80;81.70;98210.88;7401255;19;21154;-88
2022/11/22 06:08:22;;;;;;;;;;;;;;;8.77;82.13;98206.88;7398698;19;19923;-87
2022/11/22 06:10:52;;;;;;;;;;;;;;;8.76;81.93;98202.66;7397914;19;19930;-88
2022/11/22 06:13:19;;;;;;;;;;;;;;;8.76;81.53;98207.88;7393234;19;19943;-89
2022/11/22 06:15:46;;;;;;;;;;;;;;;8.76;81.77;98207.88;7393713;19;19923;-88
2022/11/22 06:18:13;;;;;;;;;;;;;;;8.76;82.66;98215.75;7393863;19;19966;-88
2022/11/22 06:20:43;;;;;;;;;;;;;;;8.75;82.46;98213.31;7395118;19;19915;-86
2022/11/22 06:23:17;;;;;;;;;;;;;;;8.75;82.24;98206.28;7393055;19;19922;-87
2022/11/22 06:25:44;;;;;;;;;;;;;;;8.82;82.59;98217.56;7395327;19;19918;-89
2022/11/22 06:28:15;;;;;;;;;;;;;;;8.85;82.68;98222.38;7395492;19;20532;-88
2022/11/22 06:30:42;;;;;;;;;;;;;;;8.89;82.23;98217.50;7394350;19;19911;-88
2022/11/22 06:33:09;;;;;;;;;;;;;;;8.86;81.42;98220.56;7394236;19;19943;-88
2022/11/22 06:35:36;;;;;;;;;;;;;;;8.87;82.31;98216.94;7394657;19;19939;-88
2022/11/22 06:38:02;;;;;;;;;;;;;;;8.89;82.81;98226.19;7397594;19;20511;-89
2022/11/22 06:40:29;;;;;;;;;;;;;;;8.88;82.32;98219.34;7396783;19;19947;-88
2022/11/22 06:42:56;;;;;;;;;;;;;;;8.89;81.82;98225.38;7394376;19;19919;-88
2022/11/22 06:45:23;;;;;;;;;;;;;;;8.86;82.05;98231.84;7393750;19;20333;-89
2022/11/22 06:47:50;;;;;;;;;;;;;;;8.83;82.25;98240.16;7392451;19;19943;-87
2022/11/22 06:50:17;;;;;;;;;;;;;;;8.83;82.01;98234.91;7395318;19;19922;-90
2022/11/22 06:52:51;;;;;;;;;;;;;;;8.89;82.76;98243.72;7395421;19;19930;-87
2022/11/22 06:55:18;;;;;;;;;;;;;;;8.90;82.68;98243.53;7394137;19;19938;-87
2022/11/22 06:58:05;;;;;;;;;;;;;;;8.88;82.50;98239.53;7391384;19;20525;-87
2022/11/22 07:00:32;;;;;;;;;;;;;;;8.85;82.71;98239.91;7392662;19;19923;-87
2022/11/22 07:03:01;;;;;;;;;;;;;;;8.86;82.76;98254.66;7390899;19;19926;-88
2022/11/22 07:05:28;;;;;;;;;;;;;;;8.83;82.92;98252.44;7392058;19;20278;-88
2022/11/22 07:07:55;;;;;;;;;;;;;;;8.85;85.42;98243.34;7389760;19;19990;-87
2022/11/22 07:10:32;;;;;;;;;;;;;;;8.89;89.24;98256.84;7392039;19;19926;-88
2022/11/22 07:12:58;;;;;;;;;;;;;;;8.89;88.40;98254.22;7393263;19;20368;-87
2022/11/22 07:15:25;;;;;;;;;;;;;;;8.89;87.91;98257.66;7391032;19;19935;-87
2022/11/22 07:17:53;;;;;;;;;;;;;;;8.84;86.68;98251.41;7389518;19;19919;-88
2022/11/22 07:20:19;;;;;;;;;;;;;;;8.85;87.18;98253.84;7389534;19;19990;-87
2022/11/22 07:22:46;;;;;;;;;;;;;;;8.81;85.98;98255.25;7388049;19;20211;-88
2022/11/22 07:25:13;;;;;;;;;;;;;;;8.81;86.11;98255.25;7392559;19;19990;-87
2022/11/22 07:27:40;;;;;;;;;;;;;;;8.82;86.24;98253.44;7393307;19;19911;-88
2022/11/22 07:30:07;;;;;;;;;;;;;;;8.83;86.79;98252.44;7394519;19;20001;-89
2022/11/22 07:32:34;;;;;;;;;;;;;;;8.81;86.74;98250.03;7394593;19;19926;-87
2022/11/22 07:35:01;;;;;;;;;;;;;;;8.78;85.97;98252.25;7392814;19;19925;-88
2022/11/22 07:37:31;;;;;;;;;;;;;;;8.77;86.01;98254.06;7392799;19;19926;-89
2022/11/22 07:39:59;;;;;;;;;;;;;;;8.78;86.61;98253.06;7388106;19;19931;-86
2022/11/22 07:42:26;;;;;;;;;;;;;;;8.77;86.33;98264.56;7387948;19;20341;-87
2022/11/22 07:44:53;;;;;;;;;;;;;;;8.74;85.17;98272.81;7391082;19;20321;-86
2022/11/22 07:47:20;;;;;;;;;;;;;;;8.70;85.74;98269.00;7389070;19;19928;-87
2022/11/22 07:49:50;;;;;;;;;;;;;;;8.68;85.65;98264.97;7393782;19;19922;-87
2022/11/22 07:52:19;;;;;;;;;;;;;;;8.68;85.51;98270.22;7391425;19;19927;-88
2022/11/22 07:54:45;;;;;;;;;;;;;;;8.82;90.37;98272.59;7391105;19;19919;-88
2022/11/22 07:57:15;;;;;;;;;;;;;;;9.04;92.33;98275.75;7392391;19;19978;-88
2022/11/22 07:59:42;;;;;;;;;;;;;;;9.18;92.60;98273.91;7393871;19;21220;-86
2022/11/22 08:02:12;;;;;;;;;;;;;;;9.21;89.02;98281.38;7394813;19;19943;-86
2022/11/22 08:04:39;;;;;;;;;;;;;;;9.11;85.98;98276.56;7396492;19;19978;-87
2022/11/22 08:07:06;;;;;;;;;;;;;;;9.06;84.61;98278.19;7399064;19;19967;-88
2022/11/22 08:09:38;;;;;;;;;;;;;;;9.04;84.47;98278.38;7394677;19;19947;-86
2022/11/22 08:12:05;;;;;;;;;;;;;;;8.97;84.47;98288.91;7391145;19;19929;-87
2022/11/22 08:14:32;;;;;;;;;;;;;;;8.95;85.20;98290.13;7396906;19;19922;-88
2022/11/22 08:17:00;;;;;;;;;;;;;;;8.93;85.14;98282.47;7388105;19;19925;-88
2022/11/22 08:19:34;;;;;;;;;;;;;;;8.96;86.06;98284.66;7390884;19;19947;-90
2022/11/22 08:22:01;;;;;;;;;;;;;;;9.00;87.25;98285.88;7389010;19;19976;-86
2022/11/22 08:24:34;;;;;;;;;;;;;;;8.98;87.65;98287.09;7391117;19;19946;-89
2022/11/22 08:27:01;;;;;;;;;;;;;;;8.90;87.28;98285.50;7398689;19;19963;-87
2022/11/22 08:29:43;;;;;;;;;;;;;;;8.92;87.65;98290.53;7393286;19;19919;-88
2022/11/22 08:32:10;;;;;;;;;;;;;;;8.94;87.26;98304.22;7394156;19;19922;-89
2022/11/22 08:34:36;;;;;;;;;;;;;;;8.93;86.56;98297.41;7393588;19;19947;-87
2022/11/22 08:37:17;;;;;;;;;;;;;;;8.94;86.59;98297.16;7392735;19;19915;-88
2022/11/22 08:39:44;;;;;;;;;;;;;;;8.99;86.97;98310.47;7393275;19;20325;-88
2022/11/22 08:42:11;;;;;;;;;;;;;;;9.04;86.92;98302.00;7392910;19;19915;-88
2022/11/22 08:44:38;;;;;;;;;;;;;;;9.06;86.80;98314.91;7391018;19;19925;-89
2022/11/22 08:47:04;;;;;;;;;;;;;;;9.07;86.95;98311.28;7397091;19;20317;-89
2022/11/22 08:49:31;;;;;;;;;;;;;;;9.06;86.16;98305.22;7395192;19;19935;-88
2022/11/22 08:51:58;;;;;;;;;;;;;;;9.01;85.89;98310.28;7392862;19;19991;-88
2022/11/22 08:54:25;;;;;;;;;;;;;;;9.01;86.19;98305.84;7393945;19;19919;-88
2022/11/22 08:56:52;;;;;;;;;;;;;;;9.05;86.87;98300.97;7400149;19;19910;-88
2022/11/22 08:59:24;;;;;;;;;;;;;;;9.04;86.71;98301.22;7392987;19;19929;-88
2022/11/22 09:01:51;;;;;;;;;;;;;;;9.02;86.74;98302.22;7390721;19;20439;-88
2022/11/22 09:10:47;;;;;;;;;;;;;;;9.10;87.98;98314.28;7393519;19;19930;-87
2022/11/22 09:13:14;;;;;;;;;;;;;;;9.10;87.83;98316.91;7392241;19;19986;-88
2022/11/22 09:15:41;;;;;;;;;;;;;;;9.15;88.09;98319.72;7394028;19;20337;-87
2022/11/22 09:18:08;;;;;;;;;;;;;;;9.19;87.93;98328.81;7394539;19;20037;-90
2022/11/22 09:20:35;;;;;;;;;;;;;;;9.20;88.10;98333.03;7393658;19;19922;-87
2022/11/22 09:23:03;;;;;;;;;;;;;;;9.20;87.69;98327.78;7390369;19;19926;-86
2022/11/22 09:25:30;;;;;;;;;;;;;;;9.25;87.55;98340.28;7394463;19;20278;-89
2022/11/22 09:28:10;;;;;;;;;;;;;;;9.32;88.35;98331.38;7395031;19;20231;-89
2022/11/22 09:37:18;;;;;;;;;;;;;;;9.40;88.14;98348.69;7395139;19;19964;-88
2022/11/22 09:39:45;;;;;;;;;;;;;;;9.46;88.00;98342.63;7396021;19;19923;-88
2022/11/22 09:42:23;;;;;;;;;;;;;;;9.49;87.53;98346.69;7391653;19;20373;-89
2022/11/22 09:45:08;;;;;;;;;;;;;;;9.54;87.82;98347.66;7395092;19;19929;-89
2022/11/22 09:47:51;;;;;;;;;;;;;;;9.61;87.61;98351.06;7396161;19;19926;-88
2022/11/22 09:50:25;;;;;;;;;;;;;;;9.69;87.99;98355.28;7399745;19;19918;-86
2022/11/22 09:52:55;;;;;;;;;;;;;;;9.74;88.00;98366.78;7398679;19;19915;-89
2022/11/22 10:02:09;;;;;;;;;;;;;;;9.81;86.82;98356.22;7396623;19;19935;-87
2022/11/22 10:04:55;;;;;;;;;;;;;;;9.88;86.85;98351.75;7392965;19;19919;-86
2022/11/22 10:07:27;;;;;;;;;;;;;;;9.96;86.79;98361.19;7395695;19;19930;-88
2022/11/22 10:09:57;;;;;;;;;;;;;;;9.99;86.49;98356.34;7391337;19;19930;-88
2022/11/22 10:12:28;;;;;;;;;;;;;;;10.06;86.93;98359.72;7391856;19;19923;-88
2022/11/22 10:15:06;;;;;;;;;;;;;;;10.13;86.43;98364.97;7393892;19;20301;-89
2022/11/22 10:17:40;;;;;;;;;;;;;;;10.17;86.08;98359.09;7393756;19;20456;-89
2022/11/22 10:20:13;;;;;;;;;;;;;;;10.25;85.93;98358.06;7393713;19;19922;-88
2022/11/22 10:22:40;;;;;;;;;;;;;;;10.28;85.78;98360.25;7391824;19;19918;-88
2022/11/22 10:25:17;;;;;;;;;;;;;;;10.30;85.22;98358.22;7394938;19;19929;-88
2022/11/22 10:27:47;;;;;;;;;;;;;;;10.35;85.46;98360.22;7398397;19;19986;-88
2022/11/22 10:30:16;;;;;;;;;;;;;;;10.43;85.31;98359.94;7397227;19;20465;-86
2022/11/22 10:32:55;;;;;;;;;;;;;;;10.47;85.69;98358.50;7402522;19;19923;-87
2022/11/22 10:35:28;;;;;;;;;;;;;;;10.53;85.04;98368.16;7399365;19;19922;-88
2022/11/22 10:38:25;;;;;;;;;;;;;;;10.60;85.07;98356.59;7398669;19;19911;-87
2022/11/22 10:41:12;;;;;;;;;;;;;;;10.70;84.77;98356.09;7400561;19;19927;-88
2022/11/22 10:43:45;;;;;;;;;;;;;;;10.77;84.37;98359.47;7389945;19;20257;-88
2022/11/22 10:46:28;;;;;;;;;;;;;;;10.83;84.21;98357.81;7401586;19;19925;-88
2022/11/22 10:52:13;;;;;;;;;;;;;;;10.91;83.51;98354.91;7398061;19;19911;-87
2022/11/22 10:54:40;;;;;;;;;;;;;;;10.91;83.56;98355.72;7398507;19;20345;-87
2022/11/22 10:57:32;;;;;;;;;;;;;;;10.94;83.73;98352.66;7395225;19;19918;-89
2022/11/22 11:00:01;;;;;;;;;;;;;;;10.95;83.81;98356.91;7400420;19;19915;-87
2022/11/22 11:02:30;;;;;;;;;;;;;;;10.93;83.78;98366.81;7393860;19;20193;-85
2022/11/22 11:05:03;;;;;;;;;;;;;;;10.91;83.68;98360.97;7394822;19;19934;-88
2022/11/22 11:07:30;;;;;;;;;;;;;;;10.95;84.77;98358.72;7393789;19;19934;-88
2022/11/22 11:10:13;;;;;;;;;;;;;;;10.90;84.21;98358.56;7392184;19;19930;-90
2022/11/22 11:12:59;;;;;;;;;;;;;;;10.87;83.99;98361.63;7392865;19;19935;-88
2022/11/22 11:15:46;;;;;;;;;;;;;;;10.88;83.81;98360.59;7393105;19;19934;-88
2022/11/22 11:18:29;;;;;;;;;;;;;;;10.84;83.52;98354.97;7395038;19;21235;-88
2022/11/22 11:20:59;;;;;;;;;;;;;;;10.84;83.65;98351.53;7413677;19;19933;-88
2022/11/22 11:23:26;;;;;;;;;;;;;;;10.84;84.53;98352.34;7389389;19;20268;-89
2022/11/22 11:25:53;;;;;;;;;;;;;;;10.87;84.37;98351.13;7394356;19;19974;-88
2022/11/22 11:28:25;;;;;;;;;;;;;;;10.88;84.37;98353.50;7394486;19;19933;-88
2022/11/22 11:31:22;;;;;;;;;;;;;;;10.94;86.37;98354.47;7397276;19;19918;-89
2022/11/22 11:33:51;;;;;;;;;;;;;;;11.06;89.92;98352.75;7394944;19;19986;-89
2022/11/22 11:36:21;;;;;;;;;;;;;;;11.09;90.81;98366.25;7396271;19;20241;-88
2022/11/22 11:38:55;;;;;;;;;;;;;;;11.03;88.51;98350.53;7394825;19;19918;-87
2022/11/22 11:41:30;;;;;;;;;;;;;;;10.98;86.59;98353.00;7390323;19;19918;-88
2022/11/22 11:43:58;;;;;;;;;;;;;;;10.99;86.37;98357.25;7391489;19;19918;-89
2022/11/22 11:46:40;;;;;;;;;;;;;;;10.98;85.49;98350.38;7392262;19;19919;-89
2022/11/22 11:49:13;;;;;;;;;;;;;;;11.01;85.08;98363.13;7397552;19;20453;-87
2022/11/22 11:51:53;;;;;;;;;;;;;;;11.07;84.85;98359.63;7394981;19;19918;-89
2022/11/22 11:54:26;;;;;;;;;;;;;;;11.14;84.34;98358.53;7396519;19;19961;-88
2022/11/22 11:57:15;;;;;;;;;;;;;;;11.19;84.64;98357.06;7394810;19;19927;-89
2022/11/22 11:59:49;;;;;;;;;;;;;;;11.23;84.30;98359.03;7394711;19;19922;-88
2022/11/22 12:02:21;;;;;;;;;;;;;;;11.27;83.80;98367.31;7394849;19;19927;-89
2022/11/22 12:05:04;;;;;;;;;;;;;;;11.29;83.30;98360.00;7397345;19;19919;-88
2022/11/22 12:07:34;;;;;;;;;;;;;;;11.30;83.04;98362.41;7395181;19;19941;-88
2022/11/22 12:10:21;;;;;;;;;;;;;;;11.29;82.73;98360.81;7396649;19;19934;-86
2022/11/22 12:12:51;;;;;;;;;;;;;;;11.29;82.81;98366.06;7391493;19;20380;-88
2022/11/22 12:15:21;;;;;;;;;;;;;;;11.25;82.86;98362.25;7390785;19;20247;-88
2022/11/22 12:17:53;;;;;;;;;;;;;;;11.24;82.34;98360.66;7390169;19;21276;-88
2022/11/22 12:23:45;;;;;;;;;;;;;;;11.23;82.17;98364.31;7391767;19;19914;-88
2022/11/22 12:26:16;;;;;;;;;;;;;;;11.25;81.63;98367.53;7392236;19;19923;-89
2022/11/22 12:28:43;;;;;;;;;;;;;;;11.26;81.27;98379.69;7395768;19;19942;-88
2022/11/22 12:31:40;;;;;;;;;;;;;;;11.29;81.56;98373.16;7394764;19;19926;-88
2022/11/22 12:34:16;;;;;;;;;;;;;;;11.33;81.87;98374.31;7391257;19;19926;-88
2022/11/22 12:40:05;;;;;;;;;;;;;;;11.37;81.13;98386.06;7394875;19;19928;-86
2022/11/22 12:42:37;;;;;;;;;;;;;;;11.46;81.59;98379.47;7395375;19;19923;-88
2022/11/22 12:45:09;;;;;;;;;;;;;;;11.54;81.61;98387.06;7396255;19;19919;-88
2022/11/22 12:47:38;;;;;;;;;;;;;;;11.63;81.04;98379.69;7395462;19;19921;-88
2022/11/22 12:50:13;;;;;;;;;;;;;;;11.70;81.00;98381.22;7393986;19;19923;-88
2022/11/22 12:53:02;;;;;;;;;;;;;;;11.75;80.82;98376.13;7393171;19;19968;-88
2022/11/22 12:55:56;;;;;;;;;;;;;;;11.80;80.33;98373.63;7390107;19;20204;-87
2022/11/22 12:58:29;;;;;;;;;;;;;;;11.88;81.47;98375.97;7386112;19;19915;-88
2022/11/22 13:01:14;;;;;;;;;;;;;;;11.92;80.50;98378.97;7387275;19;19919;-88
2022/11/22 13:03:46;;;;;;;;;;;;;;;11.96;79.80;98375.66;7385289;19;20812;-87
2022/11/22 13:06:15;;;;;;;;;;;;;;;12.03;80.45;98377.41;7388382;19;20681;-88
2022/11/22 13:09:01;;;;;;;;;;;;;;;12.06;80.44;98385.66;7382042;19;20367;-88
2022/11/22 13:11:33;;;;;;;;;;;;;;;12.09;80.03;98390.47;7386609;19;19922;-88
2022/11/22 13:14:10;;;;;;;;;;;;;;;12.12;78.92;98389.25;7388694;19;19932;-88
2022/11/22 13:16:47;;;;;;;;;;;;;;;12.17;79.01;98386.75;7383672;19;19923;-87
2022/11/22 13:19:17;;;;;;;;;;;;;;;12.23;79.25;98388.50;7389311;19;19933;-89
2022/11/22 13:22:00;;;;;;;;;;;;;;;12.29;79.23;98396.28;7391621;19;19911;-89
2022/11/22 13:24:29;;;;;;;;;;;;;;;12.37;78.82;98403.09;7397076;19;19910;-88
2022/11/22 13:27:28;;;;;;;;;;;;;;;12.43;77.64;98400.38;7396463;19;19914;-88
2022/11/22 13:29:57;;;;;;;;;;;;;;;12.49;77.61;98408.41;7396306;19;19922;-89
2022/11/22 13:32:26;;;;;;;;;;;;;;;12.51;77.57;98403.69;7400637;19;19970;-89
2022/11/22 13:35:01;;;;;;;;;;;;;;;12.53;76.88;98417.47;7397954;19;19911;-89
2022/11/22 13:37:30;;;;;;;;;;;;;;;12.55;75.90;98413.56;7400118;19;19919;-88
2022/11/22 13:40:07;;;;;;;;;;;;;;;12.54;75.44;98409.34;7396978;19;19919;-87
2022/11/22 13:42:37;;;;;;;;;;;;;;;12.49;75.38;98414.50;7392131;19;20229;-88
2022/11/22 13:45:06;;;;;;;;;;;;;;;12.47;76.28;98418.38;7394913;19;19918;-89
2022/11/22 13:47:33;;;;;;;;;;;;;;;12.50;77.61;98429.25;7392572;19;19927;-88
2022/11/22 13:50:23;;;;;;;;;;;;;;;12.47;76.90;98429.72;7391434;19;20195;-87
2022/11/22 13:52:51;;;;;;;;;;;;;;;12.42;76.29;98427.75;7394187;19;19914;-87
2022/11/22 13:55:28;;;;;;;;;;;;;;;12.37;76.05;98440.00;7397578;19;19922;-88
2022/11/22 13:57:55;;;;;;;;;;;;;;;12.32;75.95;98424.06;7401664;19;19925;-88
2022/11/22 14:00:22;;;;;;;;;;;;;;;12.26;75.41;98436.28;7398835;19;19922;-88
2022/11/22 14:03:07;;;;;;;;;;;;;;;12.20;74.68;98442.44;7400713;19;19994;-88
2022/11/22 14:05:35;;;;;;;;;;;;;;;12.14;73.72;98445.97;7402064;19;20358;-88
2022/11/22 14:08:25;;;;;;;;;;;;;;;12.10;74.27;98447.44;7400110;19;19922;-88
2022/11/22 14:10:52;;;;;;;;;;;;;;;12.05;73.77;98444.66;7398562;19;19911;-85
2022/11/22 14:13:32;;;;;;;;;;;;;;;12.02;74.41;98450.41;7393120;19;21600;-88
2022/11/22 14:15:59;;;;;;;;;;;;;;;12.02;75.15;98449.59;7391335;19;20325;-88
2022/11/22 14:18:44;;;;;;;;;;;;;;;12.02;74.57;98457.50;7396051;19;19923;-88
2022/11/22 14:21:30;;;;;;;;;;;;;;;12.03;74.78;98459.91;7395746;19;19923;-89
2022/11/22 14:24:00;;;;;;;;;;;;;;;12.02;73.08;98470.66;7388498;19;19919;-88
2022/11/22 14:30:04;;;;;;;;;;;;;;;12.06;73.42;98475.28;7399012;19;19919;-90
2022/11/22 14:32:49;;;;;;;;;;;;;;;12.06;73.70;98477.09;7396550;19;19922;-88
2022/11/22 14:35:18;;;;;;;;;;;;;;;12.07;73.12;98476.91;7396683;19;20186;-89
2022/11/22 14:38:03;;;;;;;;;;;;;;;12.11;73.78;98480.69;7397444;19;20427;-87
2022/11/22 14:40:30;;;;;;;;;;;;;;;12.13;72.85;98480.47;7394055;19;19994;-88
2022/11/22 14:43:01;;;;;;;;;;;;;;;12.13;72.93;98478.66;7399479;19;19911;-87